Lecueder, Argentina
Current Conditions -  °F | °C
As of 7:00 PM on Wednesday 22 Oct 2014 (Local Time) from SAOC Reporting Station
Clear Clear  
Wind Chill: 86°   Ceiling: Unl
Heat Index: 86°   Visibility: 6mi
Dew Point: 52°   Wind: 18mph
Humidity: 31%   Direction: 360°N
Pressure: 29.85"   Gusts: NA
Location:  34.42°S, 64.86°W
Report Text: SAOC 222200Z 36016KT CAVOK 30/11 Q1011
Loading
Personal Weather Stations






























Interactive Weather Map
Tropical Storm Tracking
New forecast layout! Learn more

10-Day Weather Forecast

Advertisements
Track Severe Weather on mobile